createdAt,value
2019-03-27T00:00:35.689Z,12.37
2019-03-27T00:01:41.325Z,11.90
2019-03-27T00:02:47.008Z,10.78
2019-03-27T00:03:52.682Z,13.70
2019-03-27T00:04:58.298Z,12.28
2019-03-27T00:06:03.961Z,12.03
2019-03-27T00:07:09.528Z,13.18
2019-03-27T00:08:15.195Z,11.88
2019-03-27T00:09:20.879Z,11.83
2019-03-27T00:10:26.603Z,12.20
2019-03-27T00:11:32.366Z,13.22
2019-03-27T00:12:38.060Z,11.20
2019-03-27T00:13:44.884Z,12.68
2019-03-27T00:14:50.588Z,12.95
2019-03-27T00:15:56.217Z,13.50
2019-03-27T00:17:01.845Z,12.37
2019-03-27T00:18:07.488Z,11.63
2019-03-27T00:19:13.051Z,13.38
2019-03-27T00:20:18.667Z,12.03
2019-03-27T00:21:24.249Z,11.18
2019-03-27T00:22:29.933Z,13.15
2019-03-27T00:23:35.661Z,13.80
2019-03-27T00:24:42.381Z,12.68
2019-03-27T00:25:48.055Z,13.45
2019-03-27T00:26:53.617Z,13.05
2019-03-27T00:27:59.301Z,11.57
2019-03-27T00:29:04.976Z,11.95
2019-03-27T00:30:11.152Z,12.23
2019-03-27T00:31:16.697Z,13.62
2019-03-27T00:32:22.321Z,12.35
2019-03-27T00:33:27.972Z,11.70
2019-03-27T00:34:33.601Z,12.28
2019-03-27T00:35:39.252Z,12.40
2019-03-27T00:36:44.936Z,12.78
2019-03-27T00:37:50.542Z,12.05
2019-03-27T00:38:56.188Z,12.28
2019-03-27T00:40:01.788Z,13.30
2019-03-27T00:41:07.347Z,12.25
2019-03-27T00:42:14.001Z,12.88
2019-03-27T00:43:19.609Z,13.53
2019-03-27T00:44:25.168Z,12.90
2019-03-27T00:45:30.853Z,12.37
2019-03-27T00:46:36.552Z,12.85
2019-03-27T00:47:42.309Z,13.03
2019-03-27T00:48:47.942Z,14.15
2019-03-27T00:49:53.548Z,12.85
2019-03-27T00:50:59.237Z,13.48
2019-03-27T00:52:04.940Z,12.70
2019-03-27T00:53:10.568Z,13.70
2019-03-27T00:54:16.116Z,13.28
2019-03-27T00:55:21.784Z,13.08
2019-03-27T00:56:27.483Z,14.00
2019-03-27T00:57:33.058Z,13.35
2019-03-27T00:58:38.724Z,13.32
2019-03-27T00:59:44.429Z,13.70
2019-03-27T01:01:05.442Z,13.00
2019-03-27T01:02:11.056Z,13.88
2019-03-27T01:03:16.697Z,14.20
2019-03-27T01:04:22.460Z,13.30
2019-03-27T01:05:28.159Z,12.40
2019-03-27T01:06:33.855Z,13.50
2019-03-27T01:07:40.489Z,13.70
2019-03-27T01:08:46.204Z,13.65
2019-03-27T01:09:51.873Z,13.68
2019-03-27T01:10:57.480Z,14.38
2019-03-27T01:12:04.228Z,13.43
2019-03-27T01:13:09.886Z,13.35
2019-03-27T01:14:15.468Z,12.63
2019-03-27T01:15:21.189Z,12.63
2019-03-27T01:16:26.845Z,12.53
2019-03-27T01:17:32.472Z,12.63
2019-03-27T01:18:38.161Z,13.03
2019-03-27T01:19:43.830Z,13.05
2019-03-27T01:20:49.493Z,13.45
2019-03-27T01:21:55.198Z,12.18
2019-03-27T01:23:00.843Z,13.48
2019-03-27T01:24:06.516Z,13.30
2019-03-27T01:25:12.092Z,13.45
2019-03-27T01:26:17.748Z,12.93
2019-03-27T01:27:23.448Z,12.93
2019-03-27T01:28:29.152Z,12.98
2019-03-27T01:29:34.798Z,12.82
2019-03-27T01:30:40.511Z,12.35
2019-03-27T01:31:46.156Z,11.43
2019-03-27T01:32:51.726Z,13.88
2019-03-27T01:33:58.303Z,13.60
2019-03-27T01:35:04.053Z,13.88
2019-03-27T01:36:09.634Z,12.40
2019-03-27T01:37:15.222Z,14.35
2019-03-27T01:38:20.886Z,12.13
2019-03-27T01:39:26.466Z,13.05
2019-03-27T01:40:32.147Z,12.75
2019-03-27T01:41:37.797Z,13.22
2019-03-27T01:42:43.457Z,13.30
2019-03-27T01:43:49.016Z,12.55
2019-03-27T01:45:04.657Z,11.90
2019-03-27T01:46:29.105Z,12.55
2019-03-27T01:47:45.468Z,12.93
2019-03-27T01:49:02.376Z,13.20
2019-03-27T01:50:19.673Z,13.53
2019-03-27T01:51:36.892Z,13.32
2019-03-27T01:52:52.284Z,13.18
2019-03-27T01:54:16.644Z,12.82
2019-03-27T01:55:33.136Z,12.75
2019-03-27T01:56:49.544Z,13.45
2019-03-27T01:58:06.704Z,12.88
2019-03-27T01:59:23.323Z,11.25
2019-03-27T02:00:40.442Z,13.32
2019-03-27T02:01:57.137Z,12.90
2019-03-27T02:03:13.601Z,13.20
2019-03-27T02:04:29.008Z,12.95
2019-03-27T02:06:12.358Z,13.45
2019-03-27T02:07:28.909Z,14.58
2019-03-27T02:08:45.746Z,13.22
2019-03-27T02:10:02.098Z,13.20
2019-03-27T02:11:18.450Z,13.05
2019-03-27T02:12:35.615Z,13.55
2019-03-27T02:13:52.257Z,13.93
2019-03-27T02:15:08.561Z,13.10
2019-03-27T02:16:25.176Z,14.43
2019-03-27T02:17:41.905Z,13.10
2019-03-27T02:18:59.219Z,14.10
2019-03-27T02:20:16.381Z,13.65
2019-03-27T02:21:33.364Z,13.80
2019-03-27T02:22:49.867Z,13.90
2019-03-27T02:24:06.268Z,14.78
2019-03-27T02:25:22.824Z,14.73
2019-03-27T02:26:39.405Z,12.95
2019-03-27T02:27:56.367Z,13.80
2019-03-27T02:29:12.944Z,13.35
2019-03-27T02:30:30.542Z,12.50
2019-03-27T02:31:46.897Z,13.18
2019-03-27T02:33:03.517Z,14.30
2019-03-27T02:34:19.953Z,14.00
2019-03-27T02:35:36.237Z,13.80
2019-03-27T02:36:52.758Z,14.25
2019-03-27T02:38:09.494Z,13.22
2019-03-27T02:39:26.004Z,13.90
2019-03-27T02:40:42.560Z,13.20
2019-03-27T02:41:59.522Z,14.10
2019-03-27T02:43:16.115Z,13.93
2019-03-27T02:44:33.079Z,11.78
2019-03-27T02:45:49.632Z,14.50
2019-03-27T02:47:06.773Z,14.47
2019-03-27T02:48:23.248Z,13.68
2019-03-27T02:49:39.525Z,13.70
2019-03-27T02:50:56.130Z,12.65
2019-03-27T02:52:13.269Z,14.53
2019-03-27T02:53:30.701Z,14.33
2019-03-27T02:54:47.173Z,13.40
2019-03-27T02:56:03.515Z,13.60
2019-03-27T02:57:20.671Z,13.65
2019-03-27T02:58:37.182Z,14.28
2019-03-27T02:59:53.585Z,13.35
2019-03-27T03:01:10.708Z,14.20
2019-03-27T03:02:27.201Z,13.55
2019-03-27T03:03:43.757Z,14.00
2019-03-27T03:05:00.485Z,14.18
2019-03-27T03:06:16.872Z,13.98
2019-03-27T03:07:33.212Z,13.80
2019-03-27T03:08:49.603Z,13.30
2019-03-27T03:10:06.003Z,13.60
2019-03-27T03:11:22.553Z,14.80
2019-03-27T03:12:39.139Z,14.70
2019-03-27T03:13:56.335Z,15.68
2019-03-27T03:15:13.034Z,14.68
2019-03-27T03:16:41.966Z,15.50
2019-03-27T03:17:48.278Z,13.53
2019-03-27T03:19:04.845Z,14.00
2019-03-27T03:20:24.040Z,14.83
2019-03-27T03:21:40.655Z,15.15
2019-03-27T03:22:57.789Z,14.60
2019-03-27T03:24:14.157Z,15.58
2019-03-27T03:25:31.138Z,15.05
2019-03-27T03:26:50.736Z,15.40
2019-03-27T03:28:06.394Z,14.63
2019-03-27T03:29:22.926Z,15.70
2019-03-27T03:30:39.426Z,15.65
2019-03-27T03:31:56.223Z,15.48
2019-03-27T03:33:12.729Z,16.42
2019-03-27T03:34:29.404Z,16.12
2019-03-27T03:35:46.684Z,14.65
2019-03-27T03:37:03.167Z,15.93
2019-03-27T03:38:19.750Z,14.20
2019-03-27T03:39:36.600Z,15.45
2019-03-27T03:40:53.303Z,15.03
2019-03-27T03:42:09.741Z,16.17
2019-03-27T03:43:26.202Z,15.38
2019-03-27T03:44:42.966Z,15.05
2019-03-27T03:46:00.225Z,14.60
2019-03-27T03:47:16.633Z,15.32
2019-03-27T03:48:33.135Z,15.75
2019-03-27T03:49:49.815Z,14.55
2019-03-27T03:51:06.593Z,16.30
2019-03-27T03:52:23.089Z,16.80
2019-03-27T03:53:39.354Z,15.63
2019-03-27T03:54:55.889Z,15.88
2019-03-27T03:56:12.241Z,16.12
2019-03-27T03:57:29.327Z,16.12
2019-03-27T03:58:45.745Z,16.23
2019-03-27T04:00:02.072Z,15.35
2019-03-27T04:01:19.269Z,16.77
2019-03-27T04:02:36.361Z,15.40
2019-03-27T04:03:53.027Z,16.15
2019-03-27T04:05:09.806Z,16.02
2019-03-27T04:06:26.247Z,15.85
2019-03-27T04:07:42.749Z,16.55
2019-03-27T04:08:59.980Z,15.85
2019-03-27T04:10:17.005Z,16.25
2019-03-27T04:11:33.722Z,15.20
2019-03-27T04:12:50.526Z,16.82
2019-03-27T04:14:07.017Z,15.55
2019-03-27T04:15:23.632Z,16.60
2019-03-27T04:16:40.749Z,16.70
2019-03-27T04:17:57.999Z,16.37
2019-03-27T04:19:14.404Z,17.40
2019-03-27T04:20:30.935Z,17.98
2019-03-27T04:21:46.611Z,18.00
2019-03-27T04:23:11.070Z,18.27
2019-03-27T04:24:27.556Z,19.05
2019-03-27T04:26:08.240Z,18.40
2019-03-27T04:27:02.887Z,19.62
2019-03-27T04:28:19.318Z,18.92
2019-03-27T04:29:35.865Z,19.92
2019-03-27T04:30:52.177Z,17.70
2019-03-27T04:32:07.626Z,19.00
2019-03-27T04:33:31.970Z,19.30
2019-03-27T04:34:48.574Z,19.73
2019-03-27T04:36:05.024Z,20.08
2019-03-27T04:37:21.631Z,18.73
2019-03-27T04:38:38.254Z,19.50
2019-03-27T04:39:54.572Z,18.65
2019-03-27T04:41:10.885Z,19.15
2019-03-27T04:42:27.360Z,18.95
2019-03-27T04:43:44.154Z,17.65
2019-03-27T04:45:01.041Z,17.57
2019-03-27T04:46:18.229Z,18.27
2019-03-27T04:47:34.773Z,18.70
2019-03-27T04:48:51.595Z,17.12
2019-03-27T04:50:08.262Z,18.50
2019-03-27T04:51:25.193Z,19.15
2019-03-27T04:52:41.559Z,18.52
2019-03-27T04:53:57.985Z,18.50
2019-03-27T04:55:14.886Z,19.07
2019-03-27T04:56:31.428Z,18.98
2019-03-27T04:57:48.040Z,19.32
2019-03-27T04:59:04.354Z,19.30
2019-03-27T05:00:21.157Z,19.52
2019-03-27T05:01:37.829Z,19.32
2019-03-27T05:02:54.680Z,19.60
2019-03-27T05:04:11.389Z,19.95
2019-03-27T05:05:28.572Z,19.30
2019-03-27T05:06:45.127Z,20.72
2019-03-27T05:08:01.816Z,20.27
2019-03-27T05:09:18.209Z,21.93
2019-03-27T05:10:34.810Z,20.08
2019-03-27T05:11:51.212Z,19.82
2019-03-27T05:13:07.693Z,20.52
2019-03-27T05:14:26.919Z,21.40
2019-03-27T05:15:43.933Z,21.25
2019-03-27T05:16:59.373Z,20.80
2019-03-27T05:20:13.097Z,20.82
2019-03-27T05:21:29.846Z,21.65
2019-03-27T05:22:46.263Z,20.50
2019-03-27T05:24:03.041Z,19.65
2019-03-27T05:25:20.037Z,21.15
2019-03-27T05:26:36.515Z,19.60
2019-03-27T05:27:53.404Z,21.33
2019-03-27T05:29:09.853Z,19.82
2019-03-27T05:30:26.217Z,21.97
2019-03-27T05:31:43.566Z,23.87
2019-03-27T05:33:00.614Z,22.40
2019-03-27T05:34:17.203Z,23.00
2019-03-27T05:35:34.600Z,22.45
2019-03-27T05:36:51.620Z,20.57
2019-03-27T05:38:08.590Z,20.50
2019-03-27T05:39:25.461Z,20.70
2019-03-27T05:40:42.496Z,21.80
2019-03-27T05:41:58.976Z,20.92
2019-03-27T05:43:15.493Z,20.57
2019-03-27T05:44:31.003Z,22.65
2019-03-27T05:45:47.396Z,23.32
2019-03-27T05:47:03.977Z,21.20
2019-03-27T05:48:21.041Z,20.80
2019-03-27T05:49:37.392Z,19.92
2019-03-27T05:50:53.729Z,21.85
2019-03-27T05:52:10.002Z,20.82
2019-03-27T05:53:26.345Z,20.27
2019-03-27T05:54:42.914Z,19.98
2019-03-27T05:56:00.217Z,20.97
2019-03-27T05:57:17.374Z,22.25
2019-03-27T05:58:35.160Z,20.92
2019-03-27T05:59:52.344Z,21.15
2019-03-27T06:01:08.868Z,21.27
2019-03-27T06:02:25.236Z,21.62
2019-03-27T06:03:42.355Z,20.80
2019-03-27T06:04:58.741Z,20.80
2019-03-27T06:06:15.325Z,22.77
2019-03-27T06:07:32.105Z,22.17
2019-03-27T06:08:49.373Z,22.60
2019-03-27T06:10:05.882Z,21.52
2019-03-27T06:11:23.026Z,22.95
2019-03-27T06:12:39.479Z,22.95
2019-03-27T06:13:55.740Z,22.25
2019-03-27T06:15:12.291Z,21.35
2019-03-27T06:16:29.457Z,22.07
2019-03-27T06:17:46.043Z,21.60
2019-03-27T06:19:02.349Z,21.60
2019-03-27T06:20:18.796Z,21.62
2019-03-27T06:21:35.915Z,22.30
2019-03-27T06:22:52.593Z,21.45
2019-03-27T06:24:09.042Z,21.65
2019-03-27T06:25:25.365Z,22.05
2019-03-27T06:26:41.839Z,23.20
2019-03-27T06:27:58.233Z,20.65
2019-03-27T06:29:15.962Z,21.90
2019-03-27T06:30:32.588Z,22.13
2019-03-27T06:31:49.036Z,20.97
2019-03-27T06:33:05.957Z,20.82
2019-03-27T06:34:22.575Z,20.52
2019-03-27T06:35:39.803Z,20.00
2019-03-27T06:36:56.173Z,20.50
2019-03-27T06:38:12.688Z,20.05
2019-03-27T06:39:29.226Z,20.35
2019-03-27T06:40:45.786Z,20.30
2019-03-27T06:42:02.837Z,19.87
2019-03-27T06:43:19.465Z,19.85
2019-03-27T06:44:36.305Z,20.45
2019-03-27T06:45:52.616Z,18.73
2019-03-27T06:47:09.148Z,19.07
2019-03-27T06:48:26.598Z,19.10
2019-03-27T06:49:43.097Z,21.95
2019-03-27T06:50:59.653Z,18.37
2019-03-27T06:52:17.327Z,20.72
2019-03-27T06:53:33.676Z,20.75
2019-03-27T06:54:50.389Z,22.58
2019-03-27T06:56:05.805Z,21.60
2019-03-27T06:57:30.182Z,22.13
2019-03-27T06:58:54.638Z,23.30
2019-03-27T07:00:05.525Z,21.20
2019-03-27T07:01:22.149Z,21.30
2019-03-27T07:02:40.381Z,21.90
2019-03-27T07:04:09.614Z,21.77
2019-03-27T07:05:15.072Z,23.25
2019-03-27T07:06:32.273Z,21.45
2019-03-27T07:07:51.610Z,23.12
2019-03-27T07:09:08.174Z,22.45
2019-03-27T07:10:25.284Z,22.65
2019-03-27T07:11:41.848Z,22.00
2019-03-27T07:12:59.109Z,22.67
2019-03-27T07:14:14.539Z,22.85
2019-03-27T07:15:39.148Z,23.20
2019-03-27T07:16:56.080Z,22.65
2019-03-27T07:18:12.508Z,23.12
2019-03-27T07:19:29.024Z,23.02
2019-03-27T07:20:45.442Z,23.73
2019-03-27T07:22:02.299Z,23.98
2019-03-27T07:23:18.790Z,23.22
2019-03-27T07:24:35.209Z,24.00
2019-03-27T07:25:52.429Z,22.82
2019-03-27T07:27:08.645Z,23.42
2019-03-27T07:28:25.462Z,24.47
2019-03-27T07:29:42.000Z,24.12
2019-03-27T07:30:58.464Z,22.05
2019-03-27T07:32:15.138Z,22.35
2019-03-27T07:33:32.269Z,21.95
2019-03-27T07:34:48.549Z,23.73
2019-03-27T07:36:05.485Z,23.60
2019-03-27T07:37:22.681Z,22.52
2019-03-27T07:38:39.497Z,21.95
2019-03-27T07:39:56.289Z,21.00
2019-03-27T07:41:12.705Z,20.80
2019-03-27T07:42:29.725Z,20.48
2019-03-27T07:43:46.340Z,21.65
2019-03-27T07:45:02.754Z,21.35
2019-03-27T07:46:19.313Z,20.65
2019-03-27T07:47:34.725Z,21.27
2019-03-27T07:48:59.122Z,20.68
2019-03-27T07:50:15.498Z,20.40
2019-03-27T07:51:31.917Z,20.00
2019-03-27T07:52:48.366Z,21.45
2019-03-27T07:54:04.876Z,21.25
2019-03-27T07:55:21.349Z,22.80
2019-03-27T07:56:37.829Z,23.38
2019-03-27T07:57:54.213Z,21.33
2019-03-27T07:59:10.921Z,20.43
2019-03-27T08:00:27.526Z,21.82
2019-03-27T08:01:44.047Z,19.90
2019-03-27T08:03:00.568Z,20.10
2019-03-27T08:04:16.857Z,21.30
2019-03-27T08:05:33.966Z,20.37
2019-03-27T08:06:50.800Z,21.42
2019-03-27T08:08:07.241Z,20.80
2019-03-27T08:09:23.617Z,21.33
2019-03-27T08:10:40.694Z,21.27
2019-03-27T08:11:57.075Z,19.85
2019-03-27T08:13:14.399Z,21.10
2019-03-27T08:14:31.601Z,21.05
2019-03-27T08:15:47.954Z,16.42
2019-03-27T08:17:04.240Z,20.50
2019-03-27T08:18:20.866Z,19.82
2019-03-27T08:19:37.212Z,19.87
2019-03-27T08:20:53.517Z,21.77
2019-03-27T08:22:09.909Z,19.90
2019-03-27T08:23:27.076Z,19.82
2019-03-27T08:24:43.636Z,19.17
2019-03-27T08:26:00.040Z,19.67
2019-03-27T08:27:17.510Z,20.70
2019-03-27T08:28:34.207Z,20.08
2019-03-27T08:29:50.678Z,20.50
2019-03-27T08:31:07.756Z,18.85
2019-03-27T08:32:24.056Z,20.65
2019-03-27T08:33:40.906Z,18.25
2019-03-27T08:34:58.485Z,21.00
2019-03-27T08:36:15.280Z,19.67
2019-03-27T08:37:31.718Z,20.60
2019-03-27T08:38:48.533Z,19.62
2019-03-27T08:40:04.973Z,20.50
2019-03-27T08:41:21.540Z,20.30
2019-03-27T08:42:38.549Z,19.87
2019-03-27T08:43:55.721Z,18.80
2019-03-27T08:45:12.326Z,18.30
2019-03-27T08:46:29.601Z,17.57
2019-03-27T08:47:46.198Z,17.35
2019-03-27T08:49:02.808Z,17.65
2019-03-27T08:50:20.217Z,15.95
2019-03-27T08:51:37.395Z,16.15
2019-03-27T08:52:53.726Z,17.48
2019-03-27T08:54:10.807Z,15.48
2019-03-27T08:55:28.102Z,17.07
2019-03-27T08:56:44.495Z,15.78
2019-03-27T08:58:01.185Z,16.97
2019-03-27T08:59:17.820Z,18.25
2019-03-27T09:00:36.710Z,18.73
2019-03-27T09:01:52.197Z,17.77
2019-03-27T09:05:13.659Z,17.65
2019-03-27T09:06:34.011Z,19.37
2019-03-27T09:07:48.141Z,19.05
2019-03-27T09:09:05.277Z,18.07
2019-03-27T09:10:21.690Z,17.20
2019-03-27T09:11:38.896Z,16.73
2019-03-27T09:12:54.349Z,16.05
2019-03-27T09:14:11.203Z,15.95
2019-03-27T09:15:27.694Z,17.42
2019-03-27T09:16:44.605Z,17.50
2019-03-27T09:18:01.134Z,17.25
2019-03-27T09:19:17.573Z,15.98
2019-03-27T09:20:33.817Z,17.27
2019-03-27T09:21:50.340Z,16.15
2019-03-27T09:23:05.758Z,15.85
2019-03-27T09:24:22.214Z,15.90
2019-03-27T09:25:37.743Z,15.35
2019-03-27T09:28:37.748Z,16.40
2019-03-27T09:29:54.828Z,15.65
2019-03-27T09:31:11.460Z,16.32
2019-03-27T09:32:27.849Z,13.93
2019-03-27T09:33:44.325Z,13.32
2019-03-27T09:35:01.569Z,14.28
2019-03-27T09:36:18.865Z,15.45
2019-03-27T09:37:35.361Z,14.10
2019-03-27T09:38:52.361Z,12.25
2019-03-27T09:40:08.887Z,10.25
2019-03-27T09:41:26.969Z,8.93
2019-03-27T09:42:43.436Z,11.95
2019-03-27T09:43:59.798Z,10.63
2019-03-27T09:45:16.577Z,10.05
2019-03-27T09:46:33.766Z,10.58
2019-03-27T09:47:50.014Z,11.15
2019-03-27T09:49:06.882Z,11.53
2019-03-27T09:50:23.275Z,9.98
2019-03-27T09:51:39.748Z,9.85
2019-03-27T09:52:56.478Z,9.90
2019-03-27T09:54:13.560Z,10.82
2019-03-27T09:55:30.008Z,10.25
2019-03-27T09:56:46.592Z,11.68
2019-03-27T09:58:02.896Z,11.88
2019-03-27T09:59:19.116Z,11.22
2019-03-27T10:00:35.605Z,10.72
2019-03-27T10:01:52.210Z,12.20
2019-03-27T10:03:08.689Z,11.83
2019-03-27T10:04:25.694Z,11.83
2019-03-27T10:05:42.299Z,11.33
2019-03-27T10:06:58.856Z,11.45
2019-03-27T10:08:15.293Z,11.68
2019-03-27T10:09:31.916Z,11.22
2019-03-27T10:10:48.470Z,11.30
2019-03-27T10:12:04.931Z,11.10
2019-03-27T10:13:21.278Z,12.35
2019-03-27T10:14:38.293Z,11.28
2019-03-27T10:15:54.764Z,10.60
2019-03-27T10:17:11.266Z,10.23
2019-03-27T10:18:27.550Z,12.35
2019-03-27T10:19:44.826Z,9.58
2019-03-27T10:21:01.314Z,9.90
2019-03-27T10:22:16.817Z,12.13
2019-03-27T10:23:32.285Z,11.12
2019-03-27T10:24:49.604Z,11.78
2019-03-27T10:26:05.965Z,11.57
2019-03-27T10:27:22.587Z,11.55
2019-03-27T10:28:39.154Z,11.95
2019-03-27T10:29:55.476Z,11.65
2019-03-27T10:31:11.897Z,11.75
2019-03-27T10:32:28.362Z,11.78
2019-03-27T10:33:44.640Z,11.25
2019-03-27T10:35:02.152Z,11.15
2019-03-27T10:36:18.546Z,11.73
2019-03-27T10:37:35.090Z,10.70
2019-03-27T10:38:51.558Z,11.60
2019-03-27T10:40:08.712Z,13.10
2019-03-27T10:41:26.262Z,11.00
2019-03-27T10:42:43.479Z,11.40
2019-03-27T10:43:59.955Z,12.90
2019-03-27T10:45:16.318Z,11.70
2019-03-27T10:46:32.944Z,10.18
2019-03-27T10:47:50.133Z,11.55
2019-03-27T10:49:06.690Z,10.35
2019-03-27T10:50:31.082Z,11.05
2019-03-27T10:51:47.956Z,9.70
2019-03-27T10:53:04.941Z,9.75
2019-03-27T10:54:21.542Z,10.20
2019-03-27T10:55:37.953Z,10.80
2019-03-27T10:56:55.138Z,10.08
2019-03-27T10:58:10.629Z,10.90
2019-03-27T10:59:35.118Z,10.08
2019-03-27T11:00:59.491Z,9.78
2019-03-27T11:02:16.068Z,10.43
2019-03-27T11:03:32.733Z,10.18
2019-03-27T11:04:49.691Z,10.43
2019-03-27T11:06:06.004Z,9.43
2019-03-27T11:07:22.637Z,10.72
2019-03-27T11:08:39.211Z,10.08
2019-03-27T11:09:55.686Z,9.50
2019-03-27T11:11:11.134Z,9.70
2019-03-27T11:12:35.488Z,10.65
2019-03-27T11:13:52.057Z,11.80
2019-03-27T11:15:09.426Z,11.93
2019-03-27T11:16:26.044Z,10.40
2019-03-27T11:17:43.153Z,10.63
2019-03-27T11:18:59.549Z,11.20
2019-03-27T11:20:15.935Z,11.05
2019-03-27T11:21:33.187Z,11.18
2019-03-27T11:22:49.689Z,11.83
2019-03-27T11:24:06.248Z,11.33
2019-03-27T11:25:22.721Z,11.68
2019-03-27T11:26:39.421Z,10.00
2019-03-27T11:27:56.603Z,9.83
2019-03-27T11:29:12.925Z,10.85
2019-03-27T11:30:29.560Z,11.38
2019-03-27T11:31:46.206Z,10.43
2019-03-27T11:33:03.519Z,11.15
2019-03-27T11:34:19.748Z,11.53
2019-03-27T11:35:36.889Z,10.88
2019-03-27T11:36:53.326Z,10.28
2019-03-27T11:38:09.778Z,9.95
2019-03-27T11:39:26.768Z,10.98
2019-03-27T11:40:43.132Z,10.38
2019-03-27T11:42:00.908Z,11.70
2019-03-27T11:43:17.763Z,10.70
2019-03-27T11:44:34.613Z,10.63
2019-03-27T11:45:51.163Z,11.55
2019-03-27T11:47:07.605Z,10.20
2019-03-27T11:48:24.353Z,11.12
2019-03-27T11:49:40.662Z,11.00
2019-03-27T11:50:57.865Z,10.95
2019-03-27T11:52:15.001Z,11.35
2019-03-27T11:53:31.535Z,10.30
2019-03-27T11:54:47.898Z,10.28
2019-03-27T11:56:04.397Z,10.13
2019-03-27T11:57:20.785Z,10.32
2019-03-27T11:58:37.329Z,10.60
2019-03-27T11:59:54.495Z,11.33
2019-03-27T12:01:11.261Z,11.38
2019-03-27T12:02:27.624Z,11.08
2019-03-27T12:03:44.010Z,10.95
2019-03-27T12:05:00.450Z,10.50
2019-03-27T12:06:16.949Z,10.28
2019-03-27T12:07:33.439Z,10.45
2019-03-27T12:08:50.894Z,11.03
2019-03-27T12:10:08.302Z,9.10
2019-03-27T12:11:24.604Z,10.20
2019-03-27T12:12:41.225Z,10.35
2019-03-27T12:13:57.798Z,9.55
2019-03-27T12:15:14.453Z,9.23
2019-03-27T12:16:31.685Z,10.03
2019-03-27T12:17:48.708Z,9.18
2019-03-27T12:19:05.355Z,9.78
2019-03-27T12:20:21.757Z,8.33
2019-03-27T12:21:38.259Z,9.85
2019-03-27T12:22:57.956Z,8.03
2019-03-27T12:24:12.693Z,8.60
2019-03-27T12:25:29.240Z,8.20
2019-03-27T12:26:45.549Z,8.60
2019-03-27T12:28:02.323Z,8.78
2019-03-27T12:29:19.086Z,7.53
2019-03-27T12:30:34.508Z,7.92
2019-03-27T12:31:58.866Z,7.47
2019-03-27T12:33:23.234Z,6.62
2019-03-27T12:34:39.641Z,8.03
2019-03-27T12:35:57.832Z,7.95
2019-03-27T12:37:14.397Z,8.20
2019-03-27T12:38:30.955Z,9.28
2019-03-27T12:39:47.453Z,8.73
2019-03-27T12:41:03.989Z,7.42
2019-03-27T12:42:21.156Z,7.37
2019-03-27T12:43:37.544Z,8.18
2019-03-27T12:44:54.109Z,7.70
2019-03-27T12:46:10.497Z,7.70
2019-03-27T12:47:26.872Z,7.80
2019-03-27T12:48:43.544Z,8.15
2019-03-27T12:50:00.361Z,6.87
2019-03-27T12:51:16.723Z,6.03
2019-03-27T12:52:33.090Z,6.37
2019-03-27T12:53:49.910Z,6.67
2019-03-27T12:55:06.529Z,6.78
2019-03-27T12:56:22.876Z,6.70
2019-03-27T12:57:39.208Z,7.60
2019-03-27T12:58:54.701Z,7.33
2019-03-27T13:00:19.081Z,6.62
2019-03-27T13:01:35.594Z,6.65
2019-03-27T13:02:51.924Z,6.50
2019-03-27T13:04:08.254Z,6.63
2019-03-27T13:05:24.771Z,6.92
2019-03-27T13:06:41.852Z,7.00
2019-03-27T13:08:01.208Z,7.45
2019-03-27T13:09:18.529Z,6.42
2019-03-27T13:10:35.036Z,6.53
2019-03-27T13:11:51.532Z,7.37
2019-03-27T13:13:08.868Z,7.85
2019-03-27T13:14:25.755Z,7.00
2019-03-27T13:15:42.156Z,6.87
2019-03-27T13:16:58.513Z,7.20
2019-03-27T13:18:15.093Z,7.33
2019-03-27T13:19:31.490Z,6.95
2019-03-27T13:20:47.821Z,7.53
2019-03-27T13:22:04.525Z,7.08
2019-03-27T13:23:21.027Z,7.40
2019-03-27T13:24:37.460Z,6.67
2019-03-27T13:25:53.978Z,6.83
2019-03-27T13:27:11.247Z,7.20
2019-03-27T13:28:28.034Z,6.65
2019-03-27T13:29:45.215Z,7.03
2019-03-27T13:31:01.697Z,6.97
2019-03-27T13:32:18.869Z,6.90
2019-03-27T13:33:35.503Z,6.95
2019-03-27T13:34:51.920Z,7.65
2019-03-27T13:36:09.027Z,6.62
2019-03-27T13:37:25.339Z,6.22
2019-03-27T13:38:42.319Z,7.10
2019-03-27T13:40:00.016Z,6.40
2019-03-27T13:41:16.804Z,6.58
2019-03-27T13:42:34.597Z,6.83
2019-03-27T13:43:51.189Z,6.85
2019-03-27T13:45:08.492Z,6.70
2019-03-27T13:46:25.101Z,7.00
2019-03-27T13:47:41.501Z,6.45
2019-03-27T13:48:57.914Z,6.58
2019-03-27T13:50:15.125Z,6.97
2019-03-27T13:51:40.978Z,6.47
2019-03-27T13:53:17.263Z,6.45
2019-03-27T13:54:34.249Z,6.78
2019-03-27T13:55:50.733Z,5.03
2019-03-27T13:57:07.840Z,6.17
2019-03-27T13:58:24.936Z,6.15
2019-03-27T13:59:41.545Z,6.15
2019-03-27T14:00:58.825Z,6.33
2019-03-27T14:02:15.415Z,5.87
2019-03-27T14:03:31.919Z,5.78
2019-03-27T14:04:48.401Z,5.58
2019-03-27T14:06:05.024Z,5.78
2019-03-27T14:07:21.577Z,6.12
2019-03-27T14:08:38.106Z,4.87
2019-03-27T14:09:54.673Z,5.50
2019-03-27T14:11:11.146Z,4.90
2019-03-27T14:12:27.632Z,5.22
2019-03-27T14:13:44.228Z,4.62
2019-03-27T14:15:00.754Z,5.78
2019-03-27T14:16:17.520Z,5.25
2019-03-27T14:17:34.738Z,4.80
2019-03-27T14:18:51.861Z,5.20
2019-03-27T14:20:08.287Z,5.00
2019-03-27T14:21:24.803Z,5.45
2019-03-27T14:22:41.978Z,4.78
2019-03-27T14:24:01.073Z,4.78
2019-03-27T14:25:18.333Z,4.65
2019-03-27T14:26:45.075Z,5.05
2019-03-27T14:27:53.088Z,5.28
2019-03-27T14:29:09.693Z,5.00
2019-03-27T14:30:26.607Z,4.92
2019-03-27T14:31:43.137Z,5.35
2019-03-27T14:33:00.030Z,5.75
2019-03-27T14:34:16.313Z,5.65
2019-03-27T14:35:33.354Z,5.17
2019-03-27T14:36:49.945Z,5.20
2019-03-27T14:38:07.172Z,5.87
2019-03-27T14:39:24.422Z,4.67
2019-03-27T14:40:40.885Z,5.92
2019-03-27T14:41:57.530Z,5.28
2019-03-27T14:43:14.270Z,5.33
2019-03-27T14:44:30.648Z,5.10
2019-03-27T14:45:47.254Z,5.12
2019-03-27T14:47:03.777Z,4.42
2019-03-27T14:48:20.650Z,5.72
2019-03-27T14:49:37.775Z,5.08
2019-03-27T14:50:54.837Z,5.55
2019-03-27T14:52:10.391Z,5.30
2019-03-27T14:53:27.694Z,5.12
2019-03-27T14:54:44.861Z,4.97
2019-03-27T14:56:01.472Z,5.78
2019-03-27T14:57:18.764Z,5.30
2019-03-27T14:58:35.187Z,4.85
2019-03-27T14:59:51.848Z,4.83
2019-03-27T15:01:07.512Z,5.20
2019-03-27T15:02:26.561Z,6.08
2019-03-27T15:03:44.813Z,4.75
2019-03-27T15:05:05.253Z,4.72
2019-03-27T15:06:23.609Z,4.80
2019-03-27T15:07:40.744Z,5.15
2019-03-27T15:08:57.972Z,5.28
2019-03-27T15:10:15.011Z,4.95
2019-03-27T15:11:31.473Z,5.17
2019-03-27T15:12:48.514Z,5.35
2019-03-27T15:14:04.976Z,4.90
2019-03-27T15:15:21.488Z,4.90
2019-03-27T15:16:38.766Z,5.20
2019-03-27T15:17:55.128Z,4.97
2019-03-27T15:19:11.884Z,4.70
2019-03-27T15:20:28.353Z,4.60
2019-03-27T15:21:44.975Z,4.95
2019-03-27T15:23:02.223Z,5.17
2019-03-27T15:24:20.724Z,4.95
2019-03-27T15:25:37.098Z,4.72
2019-03-27T15:26:53.746Z,4.17
2019-03-27T15:28:09.173Z,4.05
2019-03-27T15:31:19.969Z,4.78
2019-03-27T15:32:47.233Z,4.87
2019-03-27T15:34:04.700Z,4.75
2019-03-27T15:35:21.946Z,4.58
2019-03-27T15:36:38.366Z,5.05
2019-03-27T15:37:55.685Z,4.20
2019-03-27T15:39:12.143Z,3.02
2019-03-27T15:40:28.757Z,3.00
2019-03-27T15:41:46.180Z,3.15
2019-03-27T15:43:02.718Z,3.25
2019-03-27T15:44:19.264Z,3.77
2019-03-27T15:45:36.410Z,3.02
2019-03-27T15:46:52.834Z,3.70
2019-03-27T15:48:09.528Z,3.80
2019-03-27T15:49:26.951Z,3.35
2019-03-27T15:50:55.263Z,3.60
2019-03-27T15:52:02.722Z,4.12
2019-03-27T15:53:19.128Z,3.08
2019-03-27T15:54:35.551Z,3.47
2019-03-27T15:55:52.057Z,3.37
2019-03-27T15:57:08.593Z,3.22
2019-03-27T15:58:25.093Z,3.27
2019-03-27T15:59:41.469Z,2.80
2019-03-27T16:00:57.898Z,2.80
2019-03-27T16:02:14.394Z,3.10
2019-03-27T16:03:30.888Z,3.47
2019-03-27T16:04:48.116Z,3.75
2019-03-27T16:06:04.629Z,3.33
2019-03-27T16:07:21.180Z,3.22
2019-03-27T16:08:37.615Z,2.58
2019-03-27T16:09:54.098Z,3.17
2019-03-27T16:11:10.572Z,2.67
2019-03-27T16:12:27.061Z,2.80
2019-03-27T16:13:44.283Z,3.75
2019-03-27T16:15:00.625Z,2.85
2019-03-27T16:16:19.397Z,3.00
2019-03-27T16:17:36.204Z,2.60
2019-03-27T16:18:53.137Z,2.27
2019-03-27T16:20:09.634Z,2.80
2019-03-27T16:21:26.177Z,2.85
2019-03-27T16:22:51.334Z,2.80
2019-03-27T16:24:18.231Z,3.25
2019-03-27T16:25:35.349Z,2.55
2019-03-27T16:27:03.905Z,2.83
2019-03-27T16:28:10.485Z,2.77
2019-03-27T16:29:27.631Z,3.05
2019-03-27T16:30:45.157Z,2.62